< < Back
Terminal Aerodrome Forecast


Current Version              Previous Versions:   1  2  3  4  5  6  7  8  9  

Terminal Aerodrome Forecast

081
FTUS42 KGSP 032334
TAFHKY
TAF
KHKY 032334Z 0400/0424 22004KT P6SM FEW250
     FM041700 28004KT P6SM FEW060=

Latest METAR

080
SAUS70 KWBC 041600 RRF
MTRHKY
METAR KHKY 041553Z VRB05KT 10SM CLR 31/17 A3003 RMK AO2 SLP144
T03110167


USA.gov is the U.S. government's official web portal to all federal, state and local government web resources and services.